createdAt,value
2019-02-27T00:01:17.005Z,83.50
2019-02-27T00:03:46.813Z,89.50
2019-02-27T00:06:16.529Z,81.10
2019-02-27T00:08:46.636Z,89.30
2019-02-27T00:11:16.497Z,86.53
2019-02-27T00:13:46.220Z,85.80
2019-02-27T00:16:15.927Z,79.93
2019-02-27T00:18:45.721Z,86.33
2019-02-27T00:21:15.497Z,82.57
2019-02-27T00:23:45.283Z,79.37
2019-02-27T00:26:15.026Z,87.83
2019-02-27T00:28:44.786Z,84.93
2019-02-27T00:31:14.564Z,83.80
2019-02-27T00:33:44.656Z,84.90
2019-02-27T00:36:14.383Z,87.17
2019-02-27T00:38:44.272Z,85.60
2019-02-27T00:41:13.951Z,88.37
2019-02-27T00:43:43.615Z,82.23
2019-02-27T00:46:14.003Z,79.77
2019-02-27T00:48:43.731Z,92.13
2019-02-27T00:51:13.468Z,87.87
2019-02-27T00:53:43.093Z,82.47
2019-02-27T00:56:12.980Z,87.27
2019-02-27T00:58:43.083Z,97.83
2019-02-27T01:01:13.309Z,94.20
2019-02-27T01:03:42.991Z,97.03
2019-02-27T01:06:14.799Z,95.90
2019-02-27T01:08:44.455Z,100.20
2019-02-27T01:11:18.094Z,102.67
2019-02-27T01:13:45.558Z,101.40
2019-02-27T01:16:17.345Z,103.37
2019-02-27T01:18:46.574Z,104.03
2019-02-27T01:21:19.199Z,100.83
2019-02-27T01:23:47.590Z,101.83
2019-02-27T01:26:17.321Z,107.87
2019-02-27T01:28:47.014Z,104.17
2019-02-27T01:31:16.760Z,102.63
2019-02-27T01:33:46.421Z,93.57
2019-02-27T01:36:16.347Z,107.47
2019-02-27T01:38:46.086Z,98.30
2019-02-27T01:41:15.696Z,96.57
2019-02-27T01:43:45.365Z,102.07
2019-02-27T01:46:15.099Z,98.53
2019-02-27T01:48:44.824Z,96.47
2019-02-27T01:51:14.434Z,100.10
2019-02-27T01:53:44.166Z,110.23
2019-02-27T01:56:13.881Z,102.30
2019-02-27T01:58:44.350Z,114.00
2019-02-27T02:01:14.198Z,108.30
2019-02-27T02:03:47.187Z,106.87
2019-02-27T02:06:15.337Z,75.57
2019-02-27T02:08:48.035Z,98.70
2019-02-27T02:11:16.882Z,82.97
2019-02-27T02:13:49.574Z,85.37
2019-02-27T02:16:25.147Z,90.23
2019-02-27T02:19:18.985Z,88.87
2019-02-27T02:22:18.563Z,89.07
2019-02-27T02:25:06.061Z,82.67
2019-02-27T02:27:39.157Z,85.03
2019-02-27T02:30:40.549Z,75.23
2019-02-27T02:33:30.318Z,75.50
2019-02-27T02:36:25.088Z,73.20
2019-02-27T02:39:18.054Z,87.70
2019-02-27T02:41:52.494Z,76.17
2019-02-27T02:44:25.573Z,68.73
2019-02-27T02:47:20.021Z,53.80
2019-02-27T02:50:17.747Z,65.70
2019-02-27T02:53:07.975Z,60.90
2019-02-27T02:55:47.807Z,51.80
2019-02-27T02:58:17.596Z,62.43
2019-02-27T03:01:05.358Z,78.90
2019-02-27T03:03:47.193Z,76.13
2019-02-27T03:06:46.095Z,79.57
2019-02-27T03:09:30.611Z,81.37
2019-02-27T03:12:21.858Z,80.63
2019-02-27T03:15:11.167Z,66.80
2019-02-27T03:18:02.232Z,60.23
2019-02-27T03:20:34.899Z,73.27
2019-02-27T03:23:15.326Z,79.13
2019-02-27T03:26:18.159Z,84.57
2019-02-27T03:29:16.842Z,82.20
2019-02-27T03:32:08.592Z,79.57
2019-02-27T03:34:51.301Z,86.63
2019-02-27T03:37:39.249Z,83.30
2019-02-27T03:40:31.312Z,86.17
2019-02-27T03:43:22.282Z,85.10
2019-02-27T03:46:12.698Z,86.43
2019-02-27T03:49:08.310Z,88.40
2019-02-27T03:52:15.961Z,85.67
2019-02-27T03:55:21.704Z,85.63
2019-02-27T03:58:14.938Z,77.67
2019-02-27T04:00:59.683Z,77.13
2019-02-27T04:03:38.326Z,91.50
2019-02-27T04:06:21.318Z,89.30
2019-02-27T04:08:58.059Z,77.10
2019-02-27T04:11:28.372Z,82.50
2019-02-27T04:14:03.297Z,81.03
2019-02-27T04:16:30.508Z,83.07
2019-02-27T04:19:04.690Z,87.67
2019-02-27T04:21:31.965Z,88.83
2019-02-27T04:24:01.678Z,86.20
2019-02-27T04:26:31.692Z,88.77
2019-02-27T04:29:04.031Z,91.77
2019-02-27T04:31:32.680Z,92.17
2019-02-27T04:34:02.659Z,89.23
2019-02-27T04:36:32.301Z,89.30
2019-02-27T04:39:02.535Z,76.13
2019-02-27T04:41:32.773Z,87.27
2019-02-27T04:44:05.348Z,101.43
2019-02-27T04:46:34.070Z,87.97
2019-02-27T04:49:04.945Z,88.87
2019-02-27T04:51:34.913Z,90.50
2019-02-27T04:54:07.288Z,91.83
2019-02-27T04:56:36.012Z,93.63
2019-02-27T04:59:06.109Z,83.57
2019-02-27T05:01:36.781Z,74.93
2019-02-27T05:04:07.085Z,86.30
2019-02-27T05:06:36.718Z,89.33
2019-02-27T05:09:07.407Z,84.97
2019-02-27T05:11:37.179Z,88.30
2019-02-27T05:14:06.955Z,84.30
2019-02-27T05:16:36.747Z,77.53
2019-02-27T05:19:06.374Z,70.50
2019-02-27T05:21:35.985Z,66.90
2019-02-27T05:24:07.864Z,79.20
2019-02-27T05:26:37.075Z,74.83
2019-02-27T05:29:06.726Z,76.60
2019-02-27T05:31:36.371Z,76.27
2019-02-27T05:34:06.182Z,75.23
2019-02-27T05:36:36.222Z,79.87
2019-02-27T05:39:06.799Z,73.93
2019-02-27T05:41:36.530Z,85.20
2019-02-27T05:44:06.321Z,81.73
2019-02-27T05:46:38.312Z,74.20
2019-02-27T05:49:07.403Z,55.20
2019-02-27T05:51:37.046Z,72.90
2019-02-27T05:54:06.808Z,60.17
2019-02-27T05:56:36.622Z,56.70
2019-02-27T05:59:06.624Z,48.77
2019-02-27T06:01:38.196Z,57.87
2019-02-27T06:04:07.616Z,46.10
2019-02-27T06:06:37.412Z,67.77
2019-02-27T06:09:09.900Z,51.87
2019-02-27T06:11:39.743Z,61.97
2019-02-27T06:14:10.406Z,55.40
2019-02-27T06:16:41.021Z,49.20
2019-02-27T06:19:11.492Z,48.20
2019-02-27T06:21:41.425Z,52.27
2019-02-27T06:24:12.535Z,46.80
2019-02-27T06:26:42.628Z,62.57
2019-02-27T06:29:12.376Z,57.33
2019-02-27T06:31:42.084Z,68.93
2019-02-27T06:34:11.848Z,62.97
2019-02-27T06:36:42.871Z,63.87
2019-02-27T06:39:13.017Z,66.50
2019-02-27T06:41:44.233Z,69.30
2019-02-27T06:44:15.026Z,66.50
2019-02-27T06:46:45.569Z,62.10
2019-02-27T06:49:18.280Z,67.00
2019-02-27T06:51:46.809Z,63.17
2019-02-27T06:54:18.479Z,64.57
2019-02-27T06:56:48.099Z,51.50
2019-02-27T06:59:18.306Z,39.67
2019-02-27T07:01:48.164Z,53.50
2019-02-27T07:04:17.858Z,62.00
2019-02-27T07:06:47.922Z,54.50
2019-02-27T07:09:17.612Z,47.10
2019-02-27T07:11:48.818Z,43.00
2019-02-27T07:14:18.697Z,58.23
2019-02-27T07:16:48.353Z,60.43
2019-02-27T07:19:18.051Z,52.70
2019-02-27T07:21:47.944Z,58.60
2019-02-27T07:24:17.586Z,44.60
2019-02-27T07:26:47.531Z,55.70
2019-02-27T07:29:21.611Z,59.67
2019-02-27T07:31:52.107Z,56.50
2019-02-27T07:34:21.511Z,54.97
2019-02-27T07:36:51.178Z,76.67
2019-02-27T07:39:20.855Z,50.40
2019-02-27T07:41:50.658Z,54.87
2019-02-27T07:44:20.349Z,50.93
2019-02-27T07:46:49.973Z,51.80
2019-02-27T07:49:20.146Z,51.37
2019-02-27T07:51:49.810Z,53.13
2019-02-27T07:54:19.543Z,67.50
2019-02-27T07:56:49.371Z,55.17
2019-02-27T07:59:19.305Z,56.40
2019-02-27T08:01:49.091Z,51.50
2019-02-27T08:04:20.861Z,51.67
2019-02-27T08:06:50.192Z,50.70
2019-02-27T08:09:19.929Z,50.10
2019-02-27T08:11:49.642Z,53.37
2019-02-27T08:14:19.472Z,54.73
2019-02-27T08:16:49.498Z,50.80
2019-02-27T08:19:19.546Z,59.47
2019-02-27T08:21:49.561Z,55.77
2019-02-27T08:24:19.202Z,50.43
2019-02-27T08:26:49.232Z,47.60
2019-02-27T08:29:19.067Z,43.40
2019-02-27T08:31:49.113Z,46.30
2019-02-27T08:34:19.182Z,52.93
2019-02-27T08:36:48.784Z,53.63
2019-02-27T08:39:18.400Z,53.10
2019-02-27T08:41:48.232Z,36.37
2019-02-27T08:44:17.985Z,50.10
2019-02-27T08:46:47.663Z,43.00
2019-02-27T08:49:17.281Z,48.80
2019-02-27T08:51:46.914Z,48.77
2019-02-27T08:54:16.553Z,43.63
2019-02-27T08:56:47.241Z,38.13
2019-02-27T08:59:17.523Z,49.37
2019-02-27T09:01:47.294Z,41.93
2019-02-27T09:04:16.966Z,45.23
2019-02-27T09:06:46.784Z,38.17
2019-02-27T09:09:17.932Z,48.13
2019-02-27T09:11:47.830Z,39.40
2019-02-27T09:14:17.858Z,43.87
2019-02-27T09:16:47.648Z,41.40
2019-02-27T09:19:17.392Z,37.50
2019-02-27T09:21:47.112Z,41.30
2019-02-27T09:24:17.214Z,39.10
2019-02-27T09:26:47.330Z,38.20
2019-02-27T09:29:18.714Z,33.10
2019-02-27T09:31:51.066Z,36.33
2019-02-27T09:34:19.900Z,35.20
2019-02-27T09:36:49.712Z,35.10
2019-02-27T09:39:19.531Z,32.87
2019-02-27T09:41:51.186Z,36.60
2019-02-27T09:44:20.831Z,37.43
2019-02-27T09:46:52.373Z,39.23
2019-02-27T09:49:22.321Z,37.70
2019-02-27T09:51:55.916Z,30.20
2019-02-27T09:54:23.585Z,34.80
2019-02-27T09:56:53.290Z,34.90
2019-02-27T09:59:23.117Z,29.43
2019-02-27T10:01:52.929Z,28.60
2019-02-27T10:04:22.834Z,27.23
2019-02-27T10:06:52.647Z,26.30
2019-02-27T10:09:22.477Z,33.00
2019-02-27T10:11:52.449Z,25.03
2019-02-27T10:14:23.300Z,31.00
2019-02-27T10:16:53.035Z,28.80
2019-02-27T10:19:22.728Z,23.90
2019-02-27T10:21:52.498Z,26.13
2019-02-27T10:24:22.273Z,24.00
2019-02-27T10:26:53.497Z,27.90
2019-02-27T10:29:23.269Z,30.60
2019-02-27T10:31:53.186Z,26.90
2019-02-27T10:34:22.880Z,24.67
2019-02-27T10:36:52.844Z,24.33
2019-02-27T10:39:22.670Z,21.67
2019-02-27T10:41:52.352Z,20.43
2019-02-27T10:44:22.136Z,20.17
2019-02-27T10:46:52.143Z,17.10
2019-02-27T10:49:22.468Z,19.20
2019-02-27T10:51:52.196Z,22.00
2019-02-27T10:54:21.832Z,21.20
2019-02-27T10:56:51.520Z,27.10
2019-02-27T10:59:22.199Z,19.50
2019-02-27T11:01:52.837Z,21.10
2019-02-27T11:04:22.539Z,18.07
2019-02-27T11:06:52.338Z,19.10
2019-02-27T11:09:24.483Z,23.60
2019-02-27T11:11:54.599Z,16.30
2019-02-27T11:14:24.417Z,22.30
2019-02-27T11:16:54.365Z,18.53
2019-02-27T11:19:24.083Z,20.20
2019-02-27T11:21:53.795Z,24.30
2019-02-27T11:24:24.746Z,22.90
2019-02-27T11:26:54.652Z,15.87
2019-02-27T11:29:24.500Z,22.53
2019-02-27T11:31:54.197Z,19.03
2019-02-27T11:34:23.951Z,20.03
2019-02-27T11:36:53.664Z,15.80
2019-02-27T11:39:23.556Z,12.43
2019-02-27T11:41:56.038Z,11.60
2019-02-27T11:44:26.488Z,26.53
2019-02-27T11:46:58.938Z,16.33
2019-02-27T11:49:29.357Z,14.33
2019-02-27T11:51:59.294Z,12.23
2019-02-27T11:54:29.256Z,14.80
2019-02-27T11:56:59.129Z,13.47
2019-02-27T11:59:29.141Z,13.23
2019-02-27T12:01:59.412Z,14.37
2019-02-27T12:04:29.513Z,13.87
2019-02-27T12:06:59.267Z,16.20
2019-02-27T12:09:28.984Z,15.63
2019-02-27T12:11:58.919Z,12.20
2019-02-27T12:14:28.697Z,14.40
2019-02-27T12:16:58.762Z,15.10
2019-02-27T12:19:28.999Z,18.87
2019-02-27T12:22:00.236Z,12.40
2019-02-27T12:24:30.465Z,11.27
2019-02-27T12:27:00.245Z,14.30
2019-02-27T12:29:30.025Z,9.00
2019-02-27T12:32:00.154Z,10.60
2019-02-27T12:34:31.263Z,13.67
2019-02-27T12:37:01.422Z,16.40
2019-02-27T12:39:31.235Z,14.10
2019-02-27T12:42:00.938Z,9.40
2019-02-27T12:44:30.718Z,11.30
2019-02-27T12:47:00.719Z,13.73
2019-02-27T12:49:30.685Z,9.53
2019-02-27T12:52:00.698Z,12.60
2019-02-27T12:54:30.638Z,11.20
2019-02-27T12:57:01.004Z,10.83
2019-02-27T12:59:33.042Z,8.60
2019-02-27T13:02:08.269Z,17.00
2019-02-27T13:04:33.994Z,11.17
2019-02-27T13:07:04.164Z,16.20
2019-02-27T13:09:34.079Z,13.77
2019-02-27T13:12:03.914Z,8.80
2019-02-27T13:14:33.892Z,12.10
2019-02-27T13:17:03.846Z,9.77
2019-02-27T13:19:33.847Z,9.43
2019-02-27T13:22:03.607Z,13.27
2019-02-27T13:24:33.259Z,13.20
2019-02-27T13:27:03.055Z,10.23
2019-02-27T13:29:32.774Z,12.90
2019-02-27T13:32:02.435Z,9.60
2019-02-27T13:34:32.081Z,9.47
2019-02-27T13:37:02.126Z,9.37
2019-02-27T13:39:32.036Z,10.57
2019-02-27T13:42:01.786Z,6.87
2019-02-27T13:44:34.478Z,5.70
2019-02-27T13:47:03.113Z,7.60
2019-02-27T13:49:32.903Z,7.87
2019-02-27T13:52:02.696Z,6.00
2019-02-27T13:54:35.087Z,8.43
2019-02-27T13:57:03.987Z,8.47
2019-02-27T13:59:33.627Z,6.10
2019-02-27T14:02:04.162Z,8.80
2019-02-27T14:04:34.965Z,7.73
2019-02-27T14:07:04.730Z,7.83
2019-02-27T14:09:34.426Z,7.10
2019-02-27T14:12:04.213Z,7.73
2019-02-27T14:14:33.967Z,8.77
2019-02-27T14:17:03.777Z,9.93
2019-02-27T14:19:33.597Z,11.80
2019-02-27T14:22:07.099Z,12.30
2019-02-27T14:24:34.646Z,7.50
2019-02-27T14:27:04.432Z,8.70
2019-02-27T14:29:34.210Z,10.67
2019-02-27T14:32:04.002Z,12.40
2019-02-27T14:34:33.847Z,10.17
2019-02-27T14:37:03.958Z,9.73
2019-02-27T14:39:33.687Z,13.63
2019-02-27T14:42:03.387Z,14.10
2019-02-27T14:44:33.117Z,8.57
2019-02-27T14:47:02.890Z,12.27
2019-02-27T14:49:32.590Z,14.30
2019-02-27T14:52:02.420Z,10.93
2019-02-27T14:54:32.250Z,7.50
2019-02-27T14:57:01.887Z,8.30
2019-02-27T14:59:31.559Z,9.43
2019-02-27T15:02:01.293Z,8.60
2019-02-27T15:04:32.340Z,14.53
2019-02-27T15:07:02.327Z,11.70
2019-02-27T15:09:36.049Z,13.80
2019-02-27T15:12:03.401Z,16.40
2019-02-27T15:14:33.232Z,8.93
2019-02-27T15:17:03.103Z,10.40
2019-02-27T15:19:32.883Z,12.37
2019-02-27T15:22:02.692Z,11.93
2019-02-27T15:24:34.940Z,13.23
2019-02-27T15:27:04.409Z,14.60
2019-02-27T15:29:36.880Z,7.83
2019-02-27T15:32:05.717Z,9.67
2019-02-27T15:34:35.515Z,9.70
2019-02-27T15:37:05.397Z,9.60
2019-02-27T15:39:35.134Z,8.80
2019-02-27T15:42:08.553Z,15.23
2019-02-27T15:44:37.983Z,16.37
2019-02-27T15:47:07.784Z,10.60
2019-02-27T15:49:37.572Z,8.27
2019-02-27T15:52:07.811Z,13.30
2019-02-27T15:54:37.516Z,9.80
2019-02-27T15:57:07.289Z,11.90
2019-02-27T15:59:40.823Z,13.10
2019-02-27T16:02:08.645Z,9.63
2019-02-27T16:04:38.284Z,15.60
2019-02-27T16:07:07.982Z,15.50
2019-02-27T16:09:37.811Z,12.37
2019-02-27T16:12:07.664Z,14.30
2019-02-27T16:14:40.250Z,14.00
2019-02-27T16:17:08.834Z,14.10
2019-02-27T16:19:38.471Z,18.10
2019-02-27T16:22:08.310Z,12.30
2019-02-27T16:24:40.354Z,18.70
2019-02-27T16:27:09.865Z,15.70
2019-02-27T16:29:39.731Z,16.33
2019-02-27T16:32:13.233Z,14.63
2019-02-27T16:34:40.990Z,14.20
2019-02-27T16:37:21.906Z,15.33
2019-02-27T16:39:55.253Z,17.23
2019-02-27T16:42:36.452Z,21.20
2019-02-27T16:45:09.999Z,20.03
2019-02-27T16:47:41.339Z,19.30
2019-02-27T16:50:17.034Z,18.60
2019-02-27T16:52:47.792Z,10.23
2019-02-27T16:55:19.709Z,14.83
2019-02-27T16:57:56.577Z,13.20
2019-02-27T17:00:35.341Z,15.53
2019-02-27T17:03:05.772Z,19.50
2019-02-27T17:05:36.032Z,19.97
2019-02-27T17:08:07.071Z,21.47
2019-02-27T17:10:38.670Z,16.97
2019-02-27T17:13:08.544Z,12.97
2019-02-27T17:15:39.972Z,17.70
2019-02-27T17:18:12.768Z,18.90
2019-02-27T17:20:45.896Z,19.43
2019-02-27T17:23:16.138Z,14.57
2019-02-27T17:25:46.033Z,21.07
2019-02-27T17:28:15.872Z,21.20
2019-02-27T17:30:45.791Z,17.20
2019-02-27T17:33:15.896Z,23.77
2019-02-27T17:35:46.435Z,18.23
2019-02-27T17:38:17.655Z,15.60
2019-02-27T17:40:47.609Z,20.03
2019-02-27T17:43:17.451Z,21.57
2019-02-27T17:45:47.621Z,13.63
2019-02-27T17:48:17.419Z,16.27
2019-02-27T17:50:50.240Z,14.40
2019-02-27T17:53:20.376Z,13.40
2019-02-27T17:55:53.202Z,17.70
2019-02-27T17:58:23.338Z,16.80
2019-02-27T18:00:54.999Z,22.13
2019-02-27T18:03:25.061Z,16.70
2019-02-27T18:05:56.422Z,14.80
2019-02-27T18:08:26.518Z,15.90
2019-02-27T18:10:59.638Z,22.90
2019-02-27T18:13:29.689Z,20.17
2019-02-27T18:16:00.782Z,17.17
2019-02-27T18:18:31.260Z,22.30
2019-02-27T18:21:03.016Z,26.70
2019-02-27T18:23:32.888Z,23.50
2019-02-27T18:26:02.866Z,15.77
2019-02-27T18:28:33.600Z,16.77
2019-02-27T18:31:03.676Z,23.90
2019-02-27T18:33:33.479Z,14.67
2019-02-27T18:36:04.882Z,18.63
2019-02-27T18:38:34.569Z,14.00
2019-02-27T18:41:04.294Z,15.70
2019-02-27T18:43:34.711Z,20.93
2019-02-27T18:46:04.480Z,15.40
2019-02-27T18:48:34.311Z,16.50
2019-02-27T18:51:04.179Z,15.60
2019-02-27T18:53:34.004Z,16.30
2019-02-27T18:56:03.907Z,19.70
2019-02-27T18:58:33.696Z,16.90
2019-02-27T19:01:04.255Z,19.90
2019-02-27T19:03:34.032Z,15.47
2019-02-27T19:06:04.068Z,20.20
2019-02-27T19:08:33.934Z,13.10
2019-02-27T19:11:03.824Z,25.80
2019-02-27T19:13:33.617Z,22.27
2019-02-27T19:16:03.748Z,17.60
2019-02-27T19:18:38.502Z,17.33
2019-02-27T19:21:05.275Z,28.43
2019-02-27T19:23:52.578Z,20.77
2019-02-27T19:26:23.734Z,27.73
2019-02-27T19:28:53.435Z,22.33
2019-02-27T19:31:23.233Z,21.60
2019-02-27T19:33:53.358Z,18.43
2019-02-27T19:36:23.130Z,21.73
2019-02-27T19:38:53.111Z,18.73
2019-02-27T19:41:22.941Z,28.73
2019-02-27T19:43:55.759Z,21.23
2019-02-27T19:46:24.199Z,18.17
2019-02-27T19:48:54.034Z,17.10
2019-02-27T19:51:23.889Z,22.37
2019-02-27T19:53:53.758Z,22.70
2019-02-27T19:56:23.512Z,23.10
2019-02-27T19:58:53.394Z,16.70
2019-02-27T20:01:23.167Z,21.80
2019-02-27T20:03:53.687Z,20.43
2019-02-27T20:06:27.982Z,25.40
2019-02-27T20:08:56.676Z,16.97
2019-02-27T20:11:27.056Z,21.30
2019-02-27T20:14:01.942Z,19.17
2019-02-27T20:16:29.396Z,19.30
2019-02-27T20:18:59.393Z,18.67
2019-02-27T20:21:31.905Z,16.57
2019-02-27T20:24:03.595Z,18.77
2019-02-27T20:26:33.623Z,23.87
2019-02-27T20:29:04.443Z,19.03
2019-02-27T20:31:34.828Z,18.10
2019-02-27T20:34:04.719Z,16.83
2019-02-27T20:36:34.497Z,19.40
2019-02-27T20:39:04.978Z,18.07
2019-02-27T20:41:39.637Z,17.43
2019-02-27T20:44:06.780Z,18.13
2019-02-27T20:46:37.263Z,19.53
2019-02-27T20:49:10.462Z,16.50
2019-02-27T20:51:40.001Z,17.60
2019-02-27T20:54:10.878Z,16.80
2019-02-27T20:56:40.842Z,22.27
2019-02-27T20:59:10.906Z,17.10
2019-02-27T21:01:46.715Z,17.00
2019-02-27T21:04:15.269Z,16.90
2019-02-27T21:06:48.553Z,18.60
2019-02-27T21:09:24.824Z,21.73
2019-02-27T21:11:55.787Z,16.83
2019-02-27T21:14:27.402Z,18.20
2019-02-27T21:16:58.889Z,13.33
2019-02-27T21:19:28.930Z,17.30
2019-02-27T21:21:59.105Z,17.87
2019-02-27T21:24:30.209Z,15.87
2019-02-27T21:27:00.300Z,16.03
2019-02-27T21:29:30.398Z,14.83
2019-02-27T21:32:01.445Z,15.93
2019-02-27T21:34:31.561Z,20.00
2019-02-27T21:37:01.491Z,16.33
2019-02-27T21:39:31.292Z,16.87
2019-02-27T21:42:01.283Z,18.70
2019-02-27T21:44:31.015Z,20.83
2019-02-27T21:47:00.901Z,22.50
2019-02-27T21:49:32.178Z,15.40
2019-02-27T21:52:02.221Z,19.30
2019-02-27T21:54:32.121Z,18.13
2019-02-27T21:57:01.976Z,14.10
2019-02-27T21:59:31.955Z,13.70
2019-02-27T22:02:01.740Z,13.97
2019-02-27T22:04:31.667Z,13.47
2019-02-27T22:07:01.351Z,14.00
2019-02-27T22:09:32.834Z,14.83
2019-02-27T22:12:02.648Z,15.07
2019-02-27T22:14:32.443Z,15.50
2019-02-27T22:17:04.967Z,14.00
2019-02-27T22:19:33.844Z,14.67
2019-02-27T22:22:05.295Z,16.03
2019-02-27T22:24:35.374Z,15.00
2019-02-27T22:27:05.148Z,12.73
2019-02-27T22:29:35.974Z,14.60
2019-02-27T22:32:05.706Z,10.20
2019-02-27T22:34:35.552Z,16.17
2019-02-27T22:37:05.374Z,13.07
2019-02-27T22:39:35.078Z,13.03
2019-02-27T22:42:04.853Z,12.67
2019-02-27T22:44:34.572Z,10.70
2019-02-27T22:47:04.369Z,13.30
2019-02-27T22:49:34.418Z,11.80
2019-02-27T22:52:04.194Z,11.07
2019-02-27T22:54:36.139Z,9.93
2019-02-27T22:57:05.225Z,15.00
2019-02-27T22:59:37.380Z,9.80
2019-02-27T23:02:06.794Z,14.00
2019-02-27T23:04:36.477Z,14.63
2019-02-27T23:07:06.250Z,11.73
2019-02-27T23:09:36.908Z,10.33
2019-02-27T23:12:08.502Z,10.60
2019-02-27T23:14:38.800Z,11.30
2019-02-27T23:17:08.907Z,10.60
2019-02-27T23:19:38.593Z,11.57
2019-02-27T23:22:09.758Z,9.20
2019-02-27T23:24:43.609Z,9.00
2019-02-27T23:27:11.233Z,15.07
2019-02-27T23:29:41.092Z,13.07
2019-02-27T23:32:10.808Z,11.70
2019-02-27T23:34:41.736Z,12.43
2019-02-27T23:37:11.842Z,9.97
2019-02-27T23:39:42.767Z,11.83
2019-02-27T23:42:12.915Z,10.40
2019-02-27T23:44:42.643Z,8.20
2019-02-27T23:47:12.683Z,9.40
2019-02-27T23:49:42.465Z,10.93
2019-02-27T23:52:12.524Z,8.13
2019-02-27T23:54:42.357Z,12.67
2019-02-27T23:57:12.178Z,13.10
2019-02-27T23:59:41.943Z,9.60
